Ek-star — LAMT5 — position and weather

sailwx.info

Track history (hours):
 
Tides and Currents Weather Stations Pressure Air Temp Water Temp Dewpoint Dewpoint Depression Visibility Wind Speed Wind Dir Waves Ship Positions

Ek-star

Last reported at 2014-Aug-22 15:29 UTC. Time now 2014-Aug-23 09:31 UTC.
Position N 57°04' E 011°40'.

Length 135 m; draft 6.1 m.

Type: Tanker. MMSI: 257433000.

Date/timePositionNaut miles runAvg speedWind from/ knotsBaromVisibWave heightAir tempDewpointWater temp
2014-Aug-22 15:29N 57°04' E 011°40'1213.1
2014-Aug-22 14:33N 57°16' E 011°34'1313.2
2014-Aug-22 13:33N 57°29' E 011°36'1111.0
2014-Aug-22 12:33N 57°39' E 011°44'5 4.9
2014-Aug-22 11:32N 57°41' E 011°53'0 0.0
2014-Aug-22 10:32N 57°41' E 011°53'0 0.0
2014-Aug-22 09:32N 57°41' E 011°53'0 0.0
2014-Aug-22 08:32N 57°41' E 011°53'0 0.0
2014-Aug-22 07:32N 57°41' E 011°53'0 0.0
2014-Aug-22 06:32N 57°41' E 011°53'0 0.0
2014-Aug-22 05:32N 57°41' E 011°53'0 0.0
2014-Aug-22 04:32N 57°41' E 011°53'0 0.0
2014-Aug-22 03:32N 57°41' E 011°53'0 0.0
2014-Aug-22 02:32N 57°41' E 011°53'0 0.0
2014-Aug-22 01:32N 57°41' E 011°53'0 0.0
2014-Aug-22 00:32N 57°41' E 011°53'0 0.0
2014-Aug-21 23:32N 57°41' E 011°53'0 0.0
2014-Aug-21 22:32N 57°41' E 011°53'0 0.0
2014-Aug-21 21:32N 57°41' E 011°53'0 0.0
2014-Aug-21 20:32N 57°41' E 011°53'0 0.0
2014-Aug-21 19:32N 57°41' E 011°53'0 0.0
2014-Aug-21 18:32N 57°41' E 011°53'0 0.0
2014-Aug-21 17:32N 57°41' E 011°53'0 0.0
2014-Aug-21 16:32N 57°41' E 011°53'0 0.0
2014-Aug-21 15:32N 57°41' E 011°53'0 0.0
2014-Aug-21 14:32N 57°41' E 011°53'0 0.0
2014-Aug-21 13:32N 57°41' E 011°53'0 0.0
2014-Aug-21 12:32N 57°41' E 011°53'0 0.0
2014-Aug-21 11:32N 57°41' E 011°53'0 0.0
2014-Aug-21 10:32N 57°41' E 011°53'0 0.0
2014-Aug-21 09:32N 57°41' E 011°53'0 0.0
2014-Aug-21 08:32N 57°41' E 011°53'0 0.0
2014-Aug-21 07:32N 57°41' E 011°53'0 0.0
2014-Aug-21 06:32N 57°41' E 011°53'0 0.0
2014-Aug-21 05:32N 57°41' E 011°53'0 0.0
2014-Aug-21 04:32N 57°41' E 011°53'0 0.0
2014-Aug-21 03:32N 57°41' E 011°53'0 0.0
2014-Aug-21 02:32N 57°41' E 011°53'0 0.0
2014-Aug-21 01:32N 57°41' E 011°53'0 0.0
2014-Aug-21 00:32N 57°41' E 011°53'0 0.0
2014-Aug-20 23:32N 57°41' E 011°53'0 0.0
2014-Aug-20 22:32N 57°41' E 011°53'0 0.0
2014-Aug-20 21:32N 57°41' E 011°53'0 0.0
2014-Aug-20 20:32N 57°41' E 011°53'0 0.0
2014-Aug-20 19:32N 57°41' E 011°53'0 0.0
2014-Aug-20 18:32N 57°41' E 011°53'0 0.0
2014-Aug-20 17:32N 57°41' E 011°53'0 0.0
2014-Aug-20 16:32N 57°41' E 011°53'0 0.0
2014-Aug-20 15:32N 57°41' E 011°53'0 0.0
2014-Aug-20 14:32N 57°41' E 011°53'0 0.0
2014-Aug-20 13:32N 57°41' E 011°53'0 0.0
2014-Aug-20 12:32N 57°41' E 011°53'0 0.0
2014-Aug-20 11:32N 57°41' E 011°53'0 0.0
2014-Aug-20 10:32N 57°41' E 011°53'0 0.0
2014-Aug-20 09:33N 57°41' E 011°53'5 5.2
2014-Aug-20 08:33N 57°39' E 011°44'7 7.5
2014-Aug-20 07:33N 57°37' E 011°31'6 6.4
2014-Aug-20 06:33N 57°39' E 011°19'1413.9
2014-Aug-20 05:33N 57°45' E 010°55'1414.3
2014-Aug-20 04:33N 57°47' E 010°29'1413.6
2014-Aug-20 03:33N 57°47' E 010°03'16411.7
2014-Aug-19 13:33N 55°36' E 007°04'1211.8
2014-Aug-19 12:33N 55°24' E 007°03'1211.9
2014-Aug-19 11:33N 55°12' E 007°03'1212.3
2014-Aug-19 10:33N 55°00' E 007°06'1812.9
2014-Aug-19 09:10N 54°42' E 007°08'811.0
2014-Aug-19 08:28N 54°35' E 007°10'1212.7
2014-Aug-19 07:33N 54°23' E 007°12'1212.4
2014-Aug-19 06:33N 54°15' E 007°28'1212.4
2014-Aug-19 05:33N 54°08' E 007°46'1211.9
2014-Aug-19 04:33N 54°02' E 008°03'1111.3
2014-Aug-19 03:33N 53°60' E 008°22'1010.1
2014-Aug-19 02:33N 53°57' E 008°38'1212.0
2014-Aug-19 01:34N 53°51' E 008°55'1211.8
2014-Aug-19 00:33N 53°53' E 009°15'1414.2
2014-Aug-18 23:34N 53°41' E 009°30'1212.4
2014-Aug-18 22:33N 53°34' E 009°46'7 7.2
2014-Aug-18 21:33N 53°30' E 009°57'0 0.2
2014-Aug-18 20:33N 53°30' E 009°57'0 0.0
2014-Aug-18 19:31N 53°30' E 009°57'0 0.0
2014-Aug-18 18:31N 53°30' E 009°57'0 0.0
2014-Aug-18 17:22N 53°30' E 009°57'0 0.0
2014-Aug-18 16:34N 53°30' E 009°57'0 0.0
2014-Aug-18 15:28N 53°30' E 009°57'0 0.0
2014-Aug-18 14:34N 53°30' E 009°57'0 0.0
2014-Aug-18 13:28N 53°30' E 009°57'0 0.0
2014-Aug-18 12:34N 53°30' E 009°57'0 0.0
2014-Aug-18 11:28N 53°30' E 009°57'0 0.0
2014-Aug-18 10:34N 53°30' E 009°57'0 0.0
2014-Aug-18 09:34N 53°30' E 009°57'0 0.0
2014-Aug-18 08:34N 53°30' E 009°57'0 0.0
2014-Aug-18 07:28N 53°30' E 009°57'0 0.0
2014-Aug-18 06:34N 53°30' E 009°57'0 0.0
2014-Aug-18 05:34N 53°30' E 009°57'0 0.0
2014-Aug-18 04:28N 53°30' E 009°57'0 0.0
2014-Aug-18 03:31N 53°30' E 009°57'0 0.0
2014-Aug-18 02:28N 53°30' E 009°57'0 0.0
2014-Aug-18 01:34N 53°30' E 009°57'0 0.0
2014-Aug-18 00:28N 53°30' E 009°57'0 0.0
2014-Aug-17 18:34N 53°30' E 009°57'0 0.0
2014-Aug-17 17:34N 53°30' E 009°57'0 0.0
2014-Aug-17 16:34N 53°30' E 009°57'0 0.0
2014-Aug-17 15:34N 53°30' E 009°57'0 0.0
2014-Aug-17 14:22N 53°30' E 009°57'0 0.4
2014-Aug-17 13:34N 53°30' E 009°57'0 0.3
2014-Aug-17 12:31N 53°30' E 009°58'0 0.0
2014-Aug-17 11:34N 53°30' E 009°58'0 0.0
2014-Aug-17 10:28N 53°30' E 009°58'0 0.0
2014-Aug-17 09:34N 53°30' E 009°58'0 0.0
2014-Aug-17 08:34N 53°30' E 009°58'0 0.0
2014-Aug-17 07:28N 53°30' E 009°58'0 0.0
2014-Aug-17 06:28N 53°30' E 009°58'0 0.0
2014-Aug-17 05:34N 53°30' E 009°58'0 0.0
2014-Aug-17 04:34N 53°30' E 009°58'0 0.0
2014-Aug-17 03:34N 53°30' E 009°58'0 0.0
2014-Aug-17 02:34N 53°30' E 009°58'0 0.0
2014-Aug-17 01:34N 53°30' E 009°58'0 0.0
2014-Aug-17 00:34N 53°30' E 009°58'0 0.0
2014-Aug-16 23:34N 53°30' E 009°58'0 0.0
2014-Aug-16 22:34N 53°30' E 009°58'0 0.0
2014-Aug-16 21:34N 53°30' E 009°58'0 0.0
2014-Aug-16 20:34N 53°30' E 009°58'1 0.9
2014-Aug-16 19:33N 53°31' E 009°57'6 6.4
2014-Aug-16 18:33N 53°33' E 009°47'1211.7
2014-Aug-16 17:33N 53°40' E 009°30'1313.2
2014-Aug-16 16:33N 53°51' E 009°19'1212.0
2014-Aug-16 15:33N 53°51' E 008°58'1110.8
2014-Aug-16 14:33N 53°55' E 008°41'1111.4
2014-Aug-16 13:33N 53°59' E 008°23'1111.0
2014-Aug-16 12:33N 54°02' E 008°05'2 2.2
2014-Aug-16 11:32N 54°02' E 008°09'0 0.0
2014-Aug-16 10:32N 54°02' E 008°09'0 0.0
2014-Aug-16 09:32N 54°02' E 008°09'0 0.1
2014-Aug-16 08:32N 54°02' E 008°08'0 0.1
2014-Aug-16 07:29N 54°02' E 008°08'0 0.0
2014-Aug-16 06:32N 54°02' E 008°08'0 0.1
2014-Aug-16 05:33N 54°02' E 008°08'1110.5
2014-Aug-16 04:28N 53°57' E 007°51'8313.6
2014-Aug-15 22:22N 53°36' E 005°36'1114.2
2014-Aug-15 21:33N 53°32' E 005°17'1414.3
2014-Aug-15 20:33N 53°27' E 004°55'10713.1
2014-Aug-15 12:22N 52°04' E 003°02'911.3
2014-Aug-15 11:33N 51°57' E 002°52'3511.6
2014-Aug-15 08:32N 51°30' E 002°15'1313.0
2014-Aug-15 07:33N 51°19' E 002°07'1313.2
2014-Aug-15 06:33N 51°10' E 001°52'1414.3
2014-Aug-15 05:33N 50°60' E 001°36'4314.3
2014-Aug-15 02:33N 50°25' E 000°55'6114.8
2014-Aug-14 22:26N 49°38' W 000°05'1011.1
2014-Aug-14 21:33N 49°30' E 000°03'5 4.8
2014-Aug-14 20:33N 49°29' E 000°10'0 0.5
2014-Aug-14 19:33N 49°29' E 000°11'0 0.0
2014-Aug-14 18:32N 49°29' E 000°11'0 0.0
2014-Aug-14 17:14N 49°29' E 000°11'0 0.0
2014-Aug-14 16:23N 49°29' E 000°11'0 0.0
2014-Aug-14 15:29N 49°29' E 000°11'0 0.0
2014-Aug-14 14:29N 49°29' E 000°11'0 0.0
2014-Aug-14 13:29N 49°29' E 000°11'0 0.0
2014-Aug-14 12:28N 49°29' E 000°11'0 0.0
2014-Aug-14 11:32N 49°29' E 000°11'0 0.0
2014-Aug-14 10:33N 49°29' E 000°11'0 0.0
2014-Aug-14 09:30N 49°29' E 000°11'0 0.0
2014-Aug-14 08:33N 49°29' E 000°11'0 0.0
2014-Aug-14 07:30N 49°29' E 000°11'0 0.0
2014-Aug-14 06:33N 49°29' E 000°11'0 0.0
2014-Aug-14 05:30N 49°29' E 000°11'0 0.0
2014-Aug-14 04:33N 49°29' E 000°11'0 0.0
2014-Aug-14 03:30N 49°29' E 000°11'0 0.0
2014-Aug-14 02:33N 49°29' E 000°11'0 0.0
2014-Aug-14 01:27N 49°29' E 000°11'0 0.0
2014-Aug-14 00:33N 49°29' E 000°11'1 1.0
2014-Aug-13 23:33N 49°28' E 000°10'10 9.7
2014-Aug-13 22:33N 49°31' W 000°05'4 4.2
2014-Aug-13 21:29N 49°35' W 000°09'0 0.1
2014-Aug-13 20:29N 49°34' W 000°09'0 0.1
2014-Aug-13 19:29N 49°34' W 000°09'0 0.1
2014-Aug-13 18:23N 49°35' W 000°09'0 0.0
2014-Aug-13 17:29N 49°35' W 000°09'5 5.7
2014-Aug-13 16:33N 49°40' W 000°10'5312.0
2014-Aug-13 12:10N 50°31' E 000°13'811.4
2014-Aug-13 11:28N 50°34' E 000°24'1011.0
2014-Aug-13 10:33N 50°38' E 000°38'1211.9
2014-Aug-13 09:33N 50°46' E 000°53'2014.8
2014-Aug-13 08:12N 50°59' E 001°17'1116.3
2014-Aug-13 07:33N 51°05' E 001°30'1514.6
2014-Aug-13 06:33N 51°16' E 001°46'1312.7
2014-Aug-13 05:33N 51°27' E 001°56'1211.7
2014-Aug-13 04:33N 51°35' E 002°09'1111.2
2014-Aug-13 03:33N 51°44' E 002°21'5011.3
2014-Aug-12 23:05N 52°03' E 003°36'713.5
2014-Aug-12 22:33N 52°03' E 003°48'1312.5
2014-Aug-12 21:32N 51°59' E 004°07'1410.9
2014-Aug-12 20:15N 51°50' E 004°26'6 9.3
2014-Aug-12 19:33N 51°48' E 004°36'2 2.1
2014-Aug-12 18:33N 51°47' E 004°39'0 0.0
2014-Aug-12 17:31N 51°47' E 004°39'0 0.0
2014-Aug-12 16:33N 51°47' E 004°39'  
Track history (hours):
 
Tides and Currents Weather Stations Pressure Air Temp Water Temp Dewpoint Dewpoint Depression Visibility Wind Speed Wind Dir Waves Ship Positions

Ek-star

Last reported at 2014-Aug-22 15:29 UTC. Time now 2014-Aug-23 09:31 UTC.
Position N 57°04' E 011°40'.

Length 135 m; draft 6.1 m.

Type: Tanker. MMSI: 257433000.

Date/timePositionNaut miles runAvg speedWind from/ knotsBaromVisibWave heightAir tempDewpointWater temp
2014-Aug-22 15:29N 57°04' E 011°40'1213.1
2014-Aug-22 14:33N 57°16' E 011°34'1313.2
2014-Aug-22 13:33N 57°29' E 011°36'1111.0
2014-Aug-22 12:33N 57°39' E 011°44'5 4.9
2014-Aug-22 11:32N 57°41' E 011°53'0 0.0
2014-Aug-22 10:32N 57°41' E 011°53'0 0.0
2014-Aug-22 09:32N 57°41' E 011°53'0 0.0
2014-Aug-22 08:32N 57°41' E 011°53'0 0.0
2014-Aug-22 07:32N 57°41' E 011°53'0 0.0
2014-Aug-22 06:32N 57°41' E 011°53'0 0.0
2014-Aug-22 05:32N 57°41' E 011°53'0 0.0
2014-Aug-22 04:32N 57°41' E 011°53'0 0.0
2014-Aug-22 03:32N 57°41' E 011°53'0 0.0
2014-Aug-22 02:32N 57°41' E 011°53'0 0.0
2014-Aug-22 01:32N 57°41' E 011°53'0 0.0
2014-Aug-22 00:32N 57°41' E 011°53'0 0.0
2014-Aug-21 23:32N 57°41' E 011°53'0 0.0
2014-Aug-21 22:32N 57°41' E 011°53'0 0.0
2014-Aug-21 21:32N 57°41' E 011°53'0 0.0
2014-Aug-21 20:32N 57°41' E 011°53'0 0.0
2014-Aug-21 19:32N 57°41' E 011°53'0 0.0
2014-Aug-21 18:32N 57°41' E 011°53'0 0.0
2014-Aug-21 17:32N 57°41' E 011°53'0 0.0
2014-Aug-21 16:32N 57°41' E 011°53'0 0.0
2014-Aug-21 15:32N 57°41' E 011°53'0 0.0
2014-Aug-21 14:32N 57°41' E 011°53'0 0.0
2014-Aug-21 13:32N 57°41' E 011°53'0 0.0
2014-Aug-21 12:32N 57°41' E 011°53'0 0.0
2014-Aug-21 11:32N 57°41' E 011°53'0 0.0
2014-Aug-21 10:32N 57°41' E 011°53'0 0.0
2014-Aug-21 09:32N 57°41' E 011°53'0 0.0
2014-Aug-21 08:32N 57°41' E 011°53'0 0.0
2014-Aug-21 07:32N 57°41' E 011°53'0 0.0
2014-Aug-21 06:32N 57°41' E 011°53'0 0.0
2014-Aug-21 05:32N 57°41' E 011°53'0 0.0
2014-Aug-21 04:32N 57°41' E 011°53'0 0.0
2014-Aug-21 03:32N 57°41' E 011°53'0 0.0
2014-Aug-21 02:32N 57°41' E 011°53'0 0.0
2014-Aug-21 01:32N 57°41' E 011°53'0 0.0
2014-Aug-21 00:32N 57°41' E 011°53'0 0.0
2014-Aug-20 23:32N 57°41' E 011°53'0 0.0
2014-Aug-20 22:32N 57°41' E 011°53'0 0.0
2014-Aug-20 21:32N 57°41' E 011°53'0 0.0
2014-Aug-20 20:32N 57°41' E 011°53'0 0.0
2014-Aug-20 19:32N 57°41' E 011°53'0 0.0
2014-Aug-20 18:32N 57°41' E 011°53'0 0.0
2014-Aug-20 17:32N 57°41' E 011°53'0 0.0
2014-Aug-20 16:32N 57°41' E 011°53'0 0.0
2014-Aug-20 15:32N 57°41' E 011°53'0 0.0
2014-Aug-20 14:32N 57°41' E 011°53'0 0.0
2014-Aug-20 13:32N 57°41' E 011°53'0 0.0
2014-Aug-20 12:32N 57°41' E 011°53'0 0.0
2014-Aug-20 11:32N 57°41' E 011°53'0 0.0
2014-Aug-20 10:32N 57°41' E 011°53'0 0.0
2014-Aug-20 09:33N 57°41' E 011°53'5 5.2
2014-Aug-20 08:33N 57°39' E 011°44'7 7.5
2014-Aug-20 07:33N 57°37' E 011°31'6 6.4
2014-Aug-20 06:33N 57°39' E 011°19'1413.9
2014-Aug-20 05:33N 57°45' E 010°55'1414.3
2014-Aug-20 04:33N 57°47' E 010°29'1413.6
2014-Aug-20 03:33N 57°47' E 010°03'16411.7
2014-Aug-19 13:33N 55°36' E 007°04'1211.8
2014-Aug-19 12:33N 55°24' E 007°03'1211.9
2014-Aug-19 11:33N 55°12' E 007°03'1212.3
2014-Aug-19 10:33N 55°00' E 007°06'1812.9
2014-Aug-19 09:10N 54°42' E 007°08'811.0
2014-Aug-19 08:28N 54°35' E 007°10'1212.7
2014-Aug-19 07:33N 54°23' E 007°12'1212.4
2014-Aug-19 06:33N 54°15' E 007°28'1212.4
2014-Aug-19 05:33N 54°08' E 007°46'1211.9
2014-Aug-19 04:33N 54°02' E 008°03'1111.3
2014-Aug-19 03:33N 53°60' E 008°22'1010.1
2014-Aug-19 02:33N 53°57' E 008°38'1212.0
2014-Aug-19 01:34N 53°51' E 008°55'1211.8
2014-Aug-19 00:33N 53°53' E 009°15'1414.2
2014-Aug-18 23:34N 53°41' E 009°30'1212.4
2014-Aug-18 22:33N 53°34' E 009°46'7 7.2
2014-Aug-18 21:33N 53°30' E 009°57'0 0.2
2014-Aug-18 20:33N 53°30' E 009°57'0 0.0
2014-Aug-18 19:31N 53°30' E 009°57'0 0.0
2014-Aug-18 18:31N 53°30' E 009°57'0 0.0
2014-Aug-18 17:22N 53°30' E 009°57'0 0.0
2014-Aug-18 16:34N 53°30' E 009°57'0 0.0
2014-Aug-18 15:28N 53°30' E 009°57'0 0.0
2014-Aug-18 14:34N 53°30' E 009°57'0 0.0
2014-Aug-18 13:28N 53°30' E 009°57'0 0.0
2014-Aug-18 12:34N 53°30' E 009°57'0 0.0
2014-Aug-18 11:28N 53°30' E 009°57'0 0.0
2014-Aug-18 10:34N 53°30' E 009°57'0 0.0
2014-Aug-18 09:34N 53°30' E 009°57'0 0.0
2014-Aug-18 08:34N 53°30' E 009°57'0 0.0
2014-Aug-18 07:28N 53°30' E 009°57'0 0.0
2014-Aug-18 06:34N 53°30' E 009°57'0 0.0
2014-Aug-18 05:34N 53°30' E 009°57'0 0.0
2014-Aug-18 04:28N 53°30' E 009°57'0 0.0
2014-Aug-18 03:31N 53°30' E 009°57'0 0.0
2014-Aug-18 02:28N 53°30' E 009°57'0 0.0
2014-Aug-18 01:34N 53°30' E 009°57'0 0.0
2014-Aug-18 00:28N 53°30' E 009°57'0 0.0
2014-Aug-17 18:34N 53°30' E 009°57'0 0.0
2014-Aug-17 17:34N 53°30' E 009°57'0 0.0
2014-Aug-17 16:34N 53°30' E 009°57'0 0.0
2014-Aug-17 15:34N 53°30' E 009°57'0 0.0
2014-Aug-17 14:22N 53°30' E 009°57'0 0.4
2014-Aug-17 13:34N 53°30' E 009°57'0 0.3
2014-Aug-17 12:31N 53°30' E 009°58'0 0.0
2014-Aug-17 11:34N 53°30' E 009°58'0 0.0
2014-Aug-17 10:28N 53°30' E 009°58'0 0.0
2014-Aug-17 09:34N 53°30' E 009°58'0 0.0
2014-Aug-17 08:34N 53°30' E 009°58'0 0.0
2014-Aug-17 07:28N 53°30' E 009°58'0 0.0
2014-Aug-17 06:28N 53°30' E 009°58'0 0.0
2014-Aug-17 05:34N 53°30' E 009°58'0 0.0
2014-Aug-17 04:34N 53°30' E 009°58'0 0.0
2014-Aug-17 03:34N 53°30' E 009°58'0 0.0
2014-Aug-17 02:34N 53°30' E 009°58'0 0.0
2014-Aug-17 01:34N 53°30' E 009°58'0 0.0
2014-Aug-17 00:34N 53°30' E 009°58'0 0.0
2014-Aug-16 23:34N 53°30' E 009°58'0 0.0
2014-Aug-16 22:34N 53°30' E 009°58'0 0.0
2014-Aug-16 21:34N 53°30' E 009°58'0 0.0
2014-Aug-16 20:34N 53°30' E 009°58'1 0.9
2014-Aug-16 19:33N 53°31' E 009°57'6 6.4
2014-Aug-16 18:33N 53°33' E 009°47'1211.7
2014-Aug-16 17:33N 53°40' E 009°30'1313.2
2014-Aug-16 16:33N 53°51' E 009°19'1212.0
2014-Aug-16 15:33N 53°51' E 008°58'1110.8
2014-Aug-16 14:33N 53°55' E 008°41'1111.4
2014-Aug-16 13:33N 53°59' E 008°23'1111.0
2014-Aug-16 12:33N 54°02' E 008°05'2 2.2
2014-Aug-16 11:32N 54°02' E 008°09'0 0.0
2014-Aug-16 10:32N 54°02' E 008°09'0 0.0
2014-Aug-16 09:32N 54°02' E 008°09'0 0.1
2014-Aug-16 08:32N 54°02' E 008°08'0 0.1
2014-Aug-16 07:29N 54°02' E 008°08'0 0.0
2014-Aug-16 06:32N 54°02' E 008°08'0 0.1
2014-Aug-16 05:33N 54°02' E 008°08'1110.5
2014-Aug-16 04:28N 53°57' E 007°51'8313.6
2014-Aug-15 22:22N 53°36' E 005°36'1114.2
2014-Aug-15 21:33N 53°32' E 005°17'1414.3
2014-Aug-15 20:33N 53°27' E 004°55'10713.1
2014-Aug-15 12:22N 52°04' E 003°02'911.3
2014-Aug-15 11:33N 51°57' E 002°52'3511.6
2014-Aug-15 08:32N 51°30' E 002°15'1313.0
2014-Aug-15 07:33N 51°19' E 002°07'1313.2
2014-Aug-15 06:33N 51°10' E 001°52'1414.3
2014-Aug-15 05:33N 50°60' E 001°36'4314.3
2014-Aug-15 02:33N 50°25' E 000°55'6114.8
2014-Aug-14 22:26N 49°38' W 000°05'1011.1
2014-Aug-14 21:33N 49°30' E 000°03'5 4.8
2014-Aug-14 20:33N 49°29' E 000°10'0 0.5
2014-Aug-14 19:33N 49°29' E 000°11'0 0.0
2014-Aug-14 18:32N 49°29' E 000°11'0 0.0
2014-Aug-14 17:14N 49°29' E 000°11'0 0.0
2014-Aug-14 16:23N 49°29' E 000°11'0 0.0
2014-Aug-14 15:29N 49°29' E 000°11'0 0.0
2014-Aug-14 14:29N 49°29' E 000°11'0 0.0
2014-Aug-14 13:29N 49°29' E 000°11'0 0.0
2014-Aug-14 12:28N 49°29' E 000°11'0 0.0
2014-Aug-14 11:32N 49°29' E 000°11'0 0.0
2014-Aug-14 10:33N 49°29' E 000°11'0 0.0
2014-Aug-14 09:30N 49°29' E 000°11'0 0.0
2014-Aug-14 08:33N 49°29' E 000°11'0 0.0
2014-Aug-14 07:30N 49°29' E 000°11'0 0.0
2014-Aug-14 06:33N 49°29' E 000°11'0 0.0
2014-Aug-14 05:30N 49°29' E 000°11'0 0.0
2014-Aug-14 04:33N 49°29' E 000°11'0 0.0
2014-Aug-14 03:30N 49°29' E 000°11'0 0.0
2014-Aug-14 02:33N 49°29' E 000°11'0 0.0
2014-Aug-14 01:27N 49°29' E 000°11'0 0.0
2014-Aug-14 00:33N 49°29' E 000°11'1 1.0
2014-Aug-13 23:33N 49°28' E 000°10'10 9.7
2014-Aug-13 22:33N 49°31' W 000°05'4 4.2
2014-Aug-13 21:29N 49°35' W 000°09'0 0.1
2014-Aug-13 20:29N 49°34' W 000°09'0 0.1
2014-Aug-13 19:29N 49°34' W 000°09'0 0.1
2014-Aug-13 18:23N 49°35' W 000°09'0 0.0
2014-Aug-13 17:29N 49°35' W 000°09'5 5.7
2014-Aug-13 16:33N 49°40' W 000°10'5312.0
2014-Aug-13 12:10N 50°31' E 000°13'811.4
2014-Aug-13 11:28N 50°34' E 000°24'1011.0
2014-Aug-13 10:33N 50°38' E 000°38'1211.9
2014-Aug-13 09:33N 50°46' E 000°53'2014.8
2014-Aug-13 08:12N 50°59' E 001°17'1116.3
2014-Aug-13 07:33N 51°05' E 001°30'1514.6
2014-Aug-13 06:33N 51°16' E 001°46'1312.7
2014-Aug-13 05:33N 51°27' E 001°56'1211.7
2014-Aug-13 04:33N 51°35' E 002°09'1111.2
2014-Aug-13 03:33N 51°44' E 002°21'5011.3
2014-Aug-12 23:05N 52°03' E 003°36'713.5
2014-Aug-12 22:33N 52°03' E 003°48'1312.5
2014-Aug-12 21:32N 51°59' E 004°07'1410.9
2014-Aug-12 20:15N 51°50' E 004°26'6 9.3
2014-Aug-12 19:33N 51°48' E 004°36'2 2.1
2014-Aug-12 18:33N 51°47' E 004°39'0 0.0
2014-Aug-12 17:31N 51°47' E 004°39'0 0.0
2014-Aug-12 16:33N 51°47' E 004°39'  

Dump ship's entire track history